sensor_id;sensor_type;location;lat;lon;timestamp;P1;durP1;ratioP1;P2;durP2;ratioP2
21601;SDS011;10963;50.934;4.668;2023-04-25T00:00:57;20.57;;;6.13;;
21601;SDS011;10963;50.934;4.668;2023-04-25T00:03:23;15.47;;;6.10;;
21601;SDS011;10963;50.934;4.668;2023-04-25T00:05:53;14.73;;;5.87;;
21601;SDS011;10963;50.934;4.668;2023-04-25T00:08:21;11.67;;;5.60;;
21601;SDS011;10963;50.934;4.668;2023-04-25T00:10:50;23.37;;;7.00;;
21601;SDS011;10963;50.934;4.668;2023-04-25T00:13:15;10.77;;;4.93;;
21601;SDS011;10963;50.934;4.668;2023-04-25T00:15:42;14.17;;;5.57;;
21601;SDS011;10963;50.934;4.668;2023-04-25T00:18:08;12.97;;;6.20;;
21601;SDS011;10963;50.934;4.668;2023-04-25T00:20:34;11.53;;;5.47;;
21601;SDS011;10963;50.934;4.668;2023-04-25T00:23:02;17.83;;;5.83;;
21601;SDS011;10963;50.934;4.668;2023-04-25T00:25:30;12.60;;;5.43;;
21601;SDS011;10963;50.934;4.668;2023-04-25T00:27:59;17.87;;;5.67;;
21601;SDS011;10963;50.934;4.668;2023-04-25T00:30:27;14.33;;;6.17;;
21601;SDS011;10963;50.934;4.668;2023-04-25T00:32:55;15.80;;;5.70;;
21601;SDS011;10963;50.934;4.668;2023-04-25T00:35:23;13.20;;;5.47;;
21601;SDS011;10963;50.934;4.668;2023-04-25T00:37:51;15.13;;;5.80;;
21601;SDS011;10963;50.934;4.668;2023-04-25T00:40:16;15.17;;;6.27;;
21601;SDS011;10963;50.934;4.668;2023-04-25T00:42:42;13.50;;;5.67;;
21601;SDS011;10963;50.934;4.668;2023-04-25T00:45:09;20.03;;;7.00;;
21601;SDS011;10963;50.934;4.668;2023-04-25T00:47:42;13.53;;;6.00;;
21601;SDS011;10963;50.934;4.668;2023-04-25T00:50:10;19.57;;;5.90;;
21601;SDS011;10963;50.934;4.668;2023-04-25T00:52:37;18.50;;;6.03;;
21601;SDS011;10963;50.934;4.668;2023-04-25T00:55:05;20.07;;;6.20;;
21601;SDS011;10963;50.934;4.668;2023-04-25T00:57:32;16.10;;;5.83;;
21601;SDS011;10963;50.934;4.668;2023-04-25T00:59:58;15.73;;;6.17;;
21601;SDS011;10963;50.934;4.668;2023-04-25T01:02:24;16.47;;;6.27;;
21601;SDS011;10963;50.934;4.668;2023-04-25T01:04:56;17.57;;;6.50;;
21601;SDS011;10963;50.934;4.668;2023-04-25T01:07:26;16.57;;;6.67;;
21601;SDS011;10963;50.934;4.668;2023-04-25T01:09:54;16.30;;;6.30;;
21601;SDS011;10963;50.934;4.668;2023-04-25T01:12:20;12.53;;;5.80;;
21601;SDS011;10963;50.934;4.668;2023-04-25T01:14:46;11.83;;;5.80;;
21601;SDS011;10963;50.934;4.668;2023-04-25T01:17:12;21.43;;;6.70;;
21601;SDS011;10963;50.934;4.668;2023-04-25T01:19:43;20.83;;;6.47;;
21601;SDS011;10963;50.934;4.668;2023-04-25T01:22:13;22.50;;;6.70;;
21601;SDS011;10963;50.934;4.668;2023-04-25T01:24:39;15.73;;;6.33;;
21601;SDS011;10963;50.934;4.668;2023-04-25T01:27:10;21.07;;;6.03;;
21601;SDS011;10963;50.934;4.668;2023-04-25T01:29:36;16.90;;;5.97;;
21601;SDS011;10963;50.934;4.668;2023-04-25T01:32:02;15.37;;;5.20;;
21601;SDS011;10963;50.934;4.668;2023-04-25T01:34:30;14.40;;;5.17;;
21601;SDS011;10963;50.934;4.668;2023-04-25T01:36:58;16.53;;;4.77;;
21601;SDS011;10963;50.934;4.668;2023-04-25T01:39:24;17.33;;;4.43;;
21601;SDS011;10963;50.934;4.668;2023-04-25T01:41:50;16.80;;;4.67;;
21601;SDS011;10963;50.934;4.668;2023-04-25T01:44:19;16.50;;;5.27;;
21601;SDS011;10963;50.934;4.668;2023-04-25T01:46:44;13.37;;;4.53;;
21601;SDS011;10963;50.934;4.668;2023-04-25T01:49:12;12.07;;;4.23;;
21601;SDS011;10963;50.934;4.668;2023-04-25T01:51:38;16.97;;;5.23;;
21601;SDS011;10963;50.934;4.668;2023-04-25T01:54:03;17.00;;;5.70;;
21601;SDS011;10963;50.934;4.668;2023-04-25T01:56:36;13.07;;;4.97;;
21601;SDS011;10963;50.934;4.668;2023-04-25T01:59:05;18.60;;;5.33;;
21601;SDS011;10963;50.934;4.668;2023-04-25T02:01:33;13.97;;;5.43;;
21601;SDS011;10963;50.934;4.668;2023-04-25T02:03:59;13.57;;;5.43;;
21601;SDS011;10963;50.934;4.668;2023-04-25T02:06:25;17.77;;;5.50;;
21601;SDS011;10963;50.934;4.668;2023-04-25T02:08:53;18.87;;;5.53;;
21601;SDS011;10963;50.934;4.668;2023-04-25T02:11:19;20.83;;;5.23;;
21601;SDS011;10963;50.934;4.668;2023-04-25T02:13:44;20.53;;;5.30;;
21601;SDS011;10963;50.934;4.668;2023-04-25T02:16:10;14.70;;;5.17;;
21601;SDS011;10963;50.934;4.668;2023-04-25T02:18:36;24.43;;;5.07;;
21601;SDS011;10963;50.934;4.668;2023-04-25T02:21:02;13.87;;;5.00;;
21601;SDS011;10963;50.934;4.668;2023-04-25T02:23:28;17.87;;;4.80;;
21601;SDS011;10963;50.934;4.668;2023-04-25T02:25:54;13.13;;;5.37;;
21601;SDS011;10963;50.934;4.668;2023-04-25T02:28:21;16.63;;;5.67;;
21601;SDS011;10963;50.934;4.668;2023-04-25T02:30:50;14.23;;;4.87;;
21601;SDS011;10963;50.934;4.668;2023-04-25T02:33:18;19.80;;;5.17;;
21601;SDS011;10963;50.934;4.668;2023-04-25T02:35:46;16.43;;;5.57;;
21601;SDS011;10963;50.934;4.668;2023-04-25T02:38:12;15.73;;;5.33;;
21601;SDS011;10963;50.934;4.668;2023-04-25T02:40:38;11.67;;;4.47;;
21601;SDS011;10963;50.934;4.668;2023-04-25T02:43:04;12.20;;;4.70;;
21601;SDS011;10963;50.934;4.668;2023-04-25T02:45:30;22.17;;;5.40;;
21601;SDS011;10963;50.934;4.668;2023-04-25T02:47:57;15.33;;;4.83;;
21601;SDS011;10963;50.934;4.668;2023-04-25T02:50:23;14.63;;;5.13;;
21601;SDS011;10963;50.934;4.668;2023-04-25T02:52:49;16.13;;;5.27;;
21601;SDS011;10963;50.934;4.668;2023-04-25T02:55:14;17.07;;;4.80;;
21601;SDS011;10963;50.934;4.668;2023-04-25T02:57:40;16.23;;;5.30;;
21601;SDS011;10963;50.934;4.668;2023-04-25T03:00:08;15.03;;;4.77;;
21601;SDS011;10963;50.934;4.668;2023-04-25T03:02:36;17.47;;;5.00;;
21601;SDS011;10963;50.934;4.668;2023-04-25T03:05:02;18.17;;;5.77;;
21601;SDS011;10963;50.934;4.668;2023-04-25T03:07:28;16.27;;;5.23;;
21601;SDS011;10963;50.934;4.668;2023-04-25T03:09:54;13.23;;;4.70;;
21601;SDS011;10963;50.934;4.668;2023-04-25T03:12:20;12.70;;;4.20;;
21601;SDS011;10963;50.934;4.668;2023-04-25T03:14:48;21.67;;;5.47;;
21601;SDS011;10963;50.934;4.668;2023-04-25T03:17:19;17.57;;;5.30;;
21601;SDS011;10963;50.934;4.668;2023-04-25T03:19:44;18.30;;;4.90;;
21601;SDS011;10963;50.934;4.668;2023-04-25T03:22:15;21.60;;;5.30;;
21601;SDS011;10963;50.934;4.668;2023-04-25T03:24:40;18.10;;;4.83;;
21601;SDS011;10963;50.934;4.668;2023-04-25T03:27:08;20.90;;;5.90;;
21601;SDS011;10963;50.934;4.668;2023-04-25T03:29:36;23.67;;;5.90;;
21601;SDS011;10963;50.934;4.668;2023-04-25T03:32:02;19.33;;;6.23;;
21601;SDS011;10963;50.934;4.668;2023-04-25T03:34:28;24.80;;;5.67;;
21601;SDS011;10963;50.934;4.668;2023-04-25T03:36:54;15.37;;;5.50;;
21601;SDS011;10963;50.934;4.668;2023-04-25T03:39:20;23.17;;;5.30;;
21601;SDS011;10963;50.934;4.668;2023-04-25T03:41:45;17.03;;;5.27;;
21601;SDS011;10963;50.934;4.668;2023-04-25T03:44:11;18.13;;;5.03;;
21601;SDS011;10963;50.934;4.668;2023-04-25T03:46:39;17.93;;;5.23;;
21601;SDS011;10963;50.934;4.668;2023-04-25T03:49:07;19.60;;;5.30;;
21601;SDS011;10963;50.934;4.668;2023-04-25T03:51:35;13.63;;;5.33;;
21601;SDS011;10963;50.934;4.668;2023-04-25T03:54:01;19.10;;;5.33;;
21601;SDS011;10963;50.934;4.668;2023-04-25T03:56:26;18.13;;;4.97;;
21601;SDS011;10963;50.934;4.668;2023-04-25T03:58:55;15.03;;;4.90;;
21601;SDS011;10963;50.934;4.668;2023-04-25T04:01:20;18.10;;;5.00;;
21601;SDS011;10963;50.934;4.668;2023-04-25T04:03:48;13.23;;;4.97;;
21601;SDS011;10963;50.934;4.668;2023-04-25T04:06:16;17.80;;;5.13;;
21601;SDS011;10963;50.934;4.668;2023-04-25T04:08:42;13.97;;;4.93;;
21601;SDS011;10963;50.934;4.668;2023-04-25T04:11:12;15.73;;;4.73;;
21601;SDS011;10963;50.934;4.668;2023-04-25T04:13:40;21.87;;;5.07;;
21601;SDS011;10963;50.934;4.668;2023-04-25T04:16:05;15.57;;;4.80;;
21601;SDS011;10963;50.934;4.668;2023-04-25T04:18:31;15.40;;;5.10;;
21601;SDS011;10963;50.934;4.668;2023-04-25T04:20:58;15.27;;;4.70;;
21601;SDS011;10963;50.934;4.668;2023-04-25T04:23:24;13.77;;;4.77;;
21601;SDS011;10963;50.934;4.668;2023-04-25T04:25:52;18.47;;;4.80;;
21601;SDS011;10963;50.934;4.668;2023-04-25T04:28:19;16.53;;;4.87;;
21601;SDS011;10963;50.934;4.668;2023-04-25T04:30:48;13.67;;;5.87;;
21601;SDS011;10963;50.934;4.668;2023-04-25T04:33:17;22.70;;;5.00;;
21601;SDS011;10963;50.934;4.668;2023-04-25T04:35:46;18.80;;;5.37;;
21601;SDS011;10963;50.934;4.668;2023-04-25T04:38:12;22.97;;;5.10;;
21601;SDS011;10963;50.934;4.668;2023-04-25T04:40:41;11.20;;;4.83;;
21601;SDS011;10963;50.934;4.668;2023-04-25T04:43:10;17.67;;;5.00;;
21601;SDS011;10963;50.934;4.668;2023-04-25T04:45:38;19.83;;;4.93;;
21601;SDS011;10963;50.934;4.668;2023-04-25T04:48:05;17.67;;;5.13;;
21601;SDS011;10963;50.934;4.668;2023-04-25T04:50:34;16.53;;;4.83;;
21601;SDS011;10963;50.934;4.668;2023-04-25T04:53:01;16.73;;;5.50;;
21601;SDS011;10963;50.934;4.668;2023-04-25T04:55:29;16.50;;;5.07;;
21601;SDS011;10963;50.934;4.668;2023-04-25T04:57:54;10.63;;;5.17;;
21601;SDS011;10963;50.934;4.668;2023-04-25T05:00:20;14.83;;;5.30;;
21601;SDS011;10963;50.934;4.668;2023-04-25T05:02:46;15.40;;;5.30;;
21601;SDS011;10963;50.934;4.668;2023-04-25T05:05:12;12.40;;;5.70;;
21601;SDS011;10963;50.934;4.668;2023-04-25T05:07:38;11.50;;;5.83;;
21601;SDS011;10963;50.934;4.668;2023-04-25T05:10:06;21.60;;;6.13;;
21601;SDS011;10963;50.934;4.668;2023-04-25T05:12:32;15.30;;;5.93;;
21601;SDS011;10963;50.934;4.668;2023-04-25T05:14:58;17.60;;;5.53;;
21601;SDS011;10963;50.934;4.668;2023-04-25T05:17:24;16.90;;;5.73;;
21601;SDS011;10963;50.934;4.668;2023-04-25T05:19:52;18.23;;;5.40;;
21601;SDS011;10963;50.934;4.668;2023-04-25T05:22:18;19.90;;;5.60;;
21601;SDS011;10963;50.934;4.668;2023-04-25T05:24:43;15.63;;;6.00;;
21601;SDS011;10963;50.934;4.668;2023-04-25T05:27:12;17.27;;;5.80;;
21601;SDS011;10963;50.934;4.668;2023-04-25T05:29:42;15.03;;;5.40;;
21601;SDS011;10963;50.934;4.668;2023-04-25T05:32:08;17.60;;;6.07;;
21601;SDS011;10963;50.934;4.668;2023-04-25T05:34:34;20.70;;;5.97;;
21601;SDS011;10963;50.934;4.668;2023-04-25T05:37:00;16.97;;;6.00;;
21601;SDS011;10963;50.934;4.668;2023-04-25T05:39:28;16.93;;;5.63;;
21601;SDS011;10963;50.934;4.668;2023-04-25T05:41:54;17.70;;;5.77;;
21601;SDS011;10963;50.934;4.668;2023-04-25T05:44:20;13.53;;;5.53;;
21601;SDS011;10963;50.934;4.668;2023-04-25T05:46:46;16.83;;;6.20;;
21601;SDS011;10963;50.934;4.668;2023-04-25T05:49:12;15.63;;;5.30;;
21601;SDS011;10963;50.934;4.668;2023-04-25T05:51:38;15.47;;;5.27;;
21601;SDS011;10963;50.934;4.668;2023-04-25T05:54:03;18.83;;;6.17;;
21601;SDS011;10963;50.934;4.668;2023-04-25T05:56:32;16.33;;;6.30;;
21601;SDS011;10963;50.934;4.668;2023-04-25T05:58:57;14.50;;;6.23;;
21601;SDS011;10963;50.934;4.668;2023-04-25T06:01:23;12.57;;;5.67;;
21601;SDS011;10963;50.934;4.668;2023-04-25T06:03:51;21.20;;;5.80;;
21601;SDS011;10963;50.934;4.668;2023-04-25T06:06:20;19.90;;;6.93;;
21601;SDS011;10963;50.934;4.668;2023-04-25T06:08:45;18.70;;;6.20;;
21601;SDS011;10963;50.934;4.668;2023-04-25T06:11:11;21.50;;;6.73;;
21601;SDS011;10963;50.934;4.668;2023-04-25T06:13:37;16.93;;;6.07;;
21601;SDS011;10963;50.934;4.668;2023-04-25T06:16:02;17.03;;;6.23;;
21601;SDS011;10963;50.934;4.668;2023-04-25T06:18:28;20.00;;;6.00;;
21601;SDS011;10963;50.934;4.668;2023-04-25T06:20:54;23.60;;;6.60;;
21601;SDS011;10963;50.934;4.668;2023-04-25T06:23:20;18.57;;;6.50;;
21601;SDS011;10963;50.934;4.668;2023-04-25T06:25:45;22.87;;;6.30;;
21601;SDS011;10963;50.934;4.668;2023-04-25T06:28:11;20.13;;;5.87;;
21601;SDS011;10963;50.934;4.668;2023-04-25T06:30:41;18.30;;;5.93;;
21601;SDS011;10963;50.934;4.668;2023-04-25T06:33:07;22.53;;;5.83;;
21601;SDS011;10963;50.934;4.668;2023-04-25T06:35:35;20.63;;;5.63;;
21601;SDS011;10963;50.934;4.668;2023-04-25T06:38:01;18.30;;;6.17;;
21601;SDS011;10963;50.934;4.668;2023-04-25T06:40:26;15.10;;;5.17;;
21601;SDS011;10963;50.934;4.668;2023-04-25T06:42:55;21.47;;;5.97;;
21601;SDS011;10963;50.934;4.668;2023-04-25T06:45:20;19.30;;;5.63;;
21601;SDS011;10963;50.934;4.668;2023-04-25T06:47:46;14.70;;;5.20;;
21601;SDS011;10963;50.934;4.668;2023-04-25T06:50:16;26.07;;;6.90;;
21601;SDS011;10963;50.934;4.668;2023-04-25T06:52:44;15.27;;;5.40;;
21601;SDS011;10963;50.934;4.668;2023-04-25T06:55:10;22.10;;;6.10;;
21601;SDS011;10963;50.934;4.668;2023-04-25T06:57:36;13.90;;;5.00;;
21601;SDS011;10963;50.934;4.668;2023-04-25T07:00:02;21.17;;;5.47;;
21601;SDS011;10963;50.934;4.668;2023-04-25T07:02:30;19.60;;;5.60;;
21601;SDS011;10963;50.934;4.668;2023-04-25T07:04:56;17.03;;;5.33;;
21601;SDS011;10963;50.934;4.668;2023-04-25T07:07:24;14.70;;;4.83;;
21601;SDS011;10963;50.934;4.668;2023-04-25T07:09:50;22.93;;;6.03;;
21601;SDS011;10963;50.934;4.668;2023-04-25T07:12:18;17.63;;;5.23;;
21601;SDS011;10963;50.934;4.668;2023-04-25T07:14:47;19.33;;;5.37;;
21601;SDS011;10963;50.934;4.668;2023-04-25T07:17:12;15.63;;;5.10;;
21601;SDS011;10963;50.934;4.668;2023-04-25T07:19:38;23.83;;;5.63;;
21601;SDS011;10963;50.934;4.668;2023-04-25T07:22:05;19.83;;;5.83;;
21601;SDS011;10963;50.934;4.668;2023-04-25T07:24:31;21.40;;;5.33;;
21601;SDS011;10963;50.934;4.668;2023-04-25T07:26:57;19.27;;;4.60;;
21601;SDS011;10963;50.934;4.668;2023-04-25T07:29:26;13.93;;;4.97;;
21601;SDS011;10963;50.934;4.668;2023-04-25T07:31:53;13.57;;;4.97;;
21601;SDS011;10963;50.934;4.668;2023-04-25T07:34:21;12.37;;;4.47;;
21601;SDS011;10963;50.934;4.668;2023-04-25T07:36:47;16.90;;;4.80;;
21601;SDS011;10963;50.934;4.668;2023-04-25T07:39:15;14.47;;;4.97;;
21601;SDS011;10963;50.934;4.668;2023-04-25T07:41:41;16.60;;;4.47;;
21601;SDS011;10963;50.934;4.668;2023-04-25T07:44:08;13.40;;;4.70;;
21601;SDS011;10963;50.934;4.668;2023-04-25T07:46:35;10.80;;;4.43;;
21601;SDS011;10963;50.934;4.668;2023-04-25T07:49:06;18.47;;;5.80;;
21601;SDS011;10963;50.934;4.668;2023-04-25T07:51:31;21.57;;;4.93;;
21601;SDS011;10963;50.934;4.668;2023-04-25T07:53:57;15.40;;;4.67;;
21601;SDS011;10963;50.934;4.668;2023-04-25T07:56:23;11.30;;;4.67;;
21601;SDS011;10963;50.934;4.668;2023-04-25T07:58:50;11.70;;;4.23;;
21601;SDS011;10963;50.934;4.668;2023-04-25T08:01:16;12.23;;;3.90;;
21601;SDS011;10963;50.934;4.668;2023-04-25T08:03:44;10.27;;;3.83;;
21601;SDS011;10963;50.934;4.668;2023-04-25T08:06:10;11.40;;;3.40;;
21601;SDS011;10963;50.934;4.668;2023-04-25T08:08:38;12.67;;;3.63;;
21601;SDS011;10963;50.934;4.668;2023-04-25T08:11:09;11.33;;;3.27;;
21601;SDS011;10963;50.934;4.668;2023-04-25T08:13:35;9.97;;;3.83;;
21601;SDS011;10963;50.934;4.668;2023-04-25T08:16:03;12.07;;;3.27;;
21601;SDS011;10963;50.934;4.668;2023-04-25T08:18:31;10.83;;;3.70;;
21601;SDS011;10963;50.934;4.668;2023-04-25T08:20:59;18.47;;;3.30;;
21601;SDS011;10963;50.934;4.668;2023-04-25T08:23:25;11.00;;;3.13;;
21601;SDS011;10963;50.934;4.668;2023-04-25T08:25:53;9.30;;;3.20;;
21601;SDS011;10963;50.934;4.668;2023-04-25T08:28:19;12.73;;;3.77;;
21601;SDS011;10963;50.934;4.668;2023-04-25T08:30:47;16.83;;;3.73;;
21601;SDS011;10963;50.934;4.668;2023-04-25T08:33:15;16.27;;;3.57;;
21601;SDS011;10963;50.934;4.668;2023-04-25T08:35:43;10.23;;;3.83;;
21601;SDS011;10963;50.934;4.668;2023-04-25T08:38:09;9.23;;;3.63;;
21601;SDS011;10963;50.934;4.668;2023-04-25T08:40:37;12.47;;;3.63;;
21601;SDS011;10963;50.934;4.668;2023-04-25T08:43:05;13.37;;;3.90;;
21601;SDS011;10963;50.934;4.668;2023-04-25T08:45:39;11.73;;;4.00;;
21601;SDS011;10963;50.934;4.668;2023-04-25T08:48:13;10.03;;;3.43;;
21601;SDS011;10963;50.934;4.668;2023-04-25T08:50:43;8.10;;;3.70;;
21601;SDS011;10963;50.934;4.668;2023-04-25T08:53:16;9.47;;;2.97;;
21601;SDS011;10963;50.934;4.668;2023-04-25T08:55:49;9.53;;;3.30;;
21601;SDS011;10963;50.934;4.668;2023-04-25T08:58:15;13.30;;;3.53;;
21601;SDS011;10963;50.934;4.668;2023-04-25T09:00:47;12.30;;;3.30;;
21601;SDS011;10963;50.934;4.668;2023-04-25T09:03:14;12.73;;;3.43;;
21601;SDS011;10963;50.934;4.668;2023-04-25T09:05:42;7.97;;;2.67;;
21601;SDS011;10963;50.934;4.668;2023-04-25T09:08:08;9.60;;;2.97;;
21601;SDS011;10963;50.934;4.668;2023-04-25T09:10:36;8.77;;;2.60;;
21601;SDS011;10963;50.934;4.668;2023-04-25T09:13:03;8.93;;;2.90;;
21601;SDS011;10963;50.934;4.668;2023-04-25T09:15:29;11.37;;;3.10;;
21601;SDS011;10963;50.934;4.668;2023-04-25T09:17:56;10.13;;;2.83;;
21601;SDS011;10963;50.934;4.668;2023-04-25T09:20:22;9.67;;;3.03;;
21601;SDS011;10963;50.934;4.668;2023-04-25T09:22:49;11.53;;;3.33;;
21601;SDS011;10963;50.934;4.668;2023-04-25T09:25:27;8.80;;;2.77;;
21601;SDS011;10963;50.934;4.668;2023-04-25T09:28:05;11.90;;;3.33;;
21601;SDS011;10963;50.934;4.668;2023-04-25T09:30:35;9.40;;;3.13;;
21601;SDS011;10963;50.934;4.668;2023-04-25T09:33:07;8.67;;;2.90;;
21601;SDS011;10963;50.934;4.668;2023-04-25T09:35:43;14.00;;;2.60;;
21601;SDS011;10963;50.934;4.668;2023-04-25T09:38:11;6.27;;;2.60;;
21601;SDS011;10963;50.934;4.668;2023-04-25T09:40:43;6.80;;;2.77;;
21601;SDS011;10963;50.934;4.668;2023-04-25T09:43:20;9.47;;;2.53;;
21601;SDS011;10963;50.934;4.668;2023-04-25T09:45:48;8.10;;;2.50;;
21601;SDS011;10963;50.934;4.668;2023-04-25T09:50:47;8.00;;;2.30;;
21601;SDS011;10963;50.934;4.668;2023-04-25T09:53:34;13.27;;;2.20;;
21601;SDS011;10963;50.934;4.668;2023-04-25T09:56:05;5.37;;;2.20;;
21601;SDS011;10963;50.934;4.668;2023-04-25T09:58:35;5.53;;;1.90;;
21601;SDS011;10963;50.934;4.668;2023-04-25T10:01:03;6.60;;;2.07;;
21601;SDS011;10963;50.934;4.668;2023-04-25T10:03:37;9.97;;;2.13;;
21601;SDS011;10963;50.934;4.668;2023-04-25T10:06:08;5.40;;;1.70;;
21601;SDS011;10963;50.934;4.668;2023-04-25T10:08:43;7.93;;;2.20;;
21601;SDS011;10963;50.934;4.668;2023-04-25T10:11:15;5.90;;;1.90;;
21601;SDS011;10963;50.934;4.668;2023-04-25T10:13:42;4.93;;;1.80;;
21601;SDS011;10963;50.934;4.668;2023-04-25T10:16:12;8.37;;;1.93;;
21601;SDS011;10963;50.934;4.668;2023-04-25T10:18:38;3.83;;;1.50;;
21601;SDS011;10963;50.934;4.668;2023-04-25T10:21:09;7.57;;;1.27;;
21601;SDS011;10963;50.934;4.668;2023-04-25T10:23:36;5.97;;;1.80;;
21601;SDS011;10963;50.934;4.668;2023-04-25T10:26:04;15.73;;;1.90;;
21601;SDS011;10963;50.934;4.668;2023-04-25T10:28:33;4.97;;;2.00;;
21601;SDS011;10963;50.934;4.668;2023-04-25T10:31:26;8.50;;;1.80;;
21601;SDS011;10963;50.934;4.668;2023-04-25T10:33:52;7.90;;;1.80;;
21601;SDS011;10963;50.934;4.668;2023-04-25T10:36:18;8.33;;;1.83;;
21601;SDS011;10963;50.934;4.668;2023-04-25T10:38:48;4.63;;;1.60;;
21601;SDS011;10963;50.934;4.668;2023-04-25T10:41:20;5.17;;;1.80;;
21601;SDS011;10963;50.934;4.668;2023-04-25T10:43:48;4.30;;;1.57;;
21601;SDS011;10963;50.934;4.668;2023-04-25T10:46:19;3.87;;;2.00;;
21601;SDS011;10963;50.934;4.668;2023-04-25T10:48:54;6.13;;;2.30;;
21601;SDS011;10963;50.934;4.668;2023-04-25T10:56:20;5.53;;;2.17;;
21601;SDS011;10963;50.934;4.668;2023-04-25T10:58:49;3.47;;;1.93;;
21601;SDS011;10963;50.934;4.668;2023-04-25T11:01:27;5.73;;;2.27;;
21601;SDS011;10963;50.934;4.668;2023-04-25T11:09:25;6.13;;;2.30;;
21601;SDS011;10963;50.934;4.668;2023-04-25T11:11:54;9.70;;;2.50;;
21601;SDS011;10963;50.934;4.668;2023-04-25T11:14:28;8.73;;;2.00;;
21601;SDS011;10963;50.934;4.668;2023-04-25T11:16:57;6.07;;;2.23;;
21601;SDS011;10963;50.934;4.668;2023-04-25T11:19:24;6.43;;;2.30;;
21601;SDS011;10963;50.934;4.668;2023-04-25T11:21:54;9.23;;;1.90;;
21601;SDS011;10963;50.934;4.668;2023-04-25T11:24:30;5.97;;;1.70;;
21601;SDS011;10963;50.934;4.668;2023-04-25T11:27:02;3.97;;;1.83;;
21601;SDS011;10963;50.934;4.668;2023-04-25T11:29:33;5.20;;;1.90;;
21601;SDS011;10963;50.934;4.668;2023-04-25T11:32:02;4.87;;;1.70;;
21601;SDS011;10963;50.934;4.668;2023-04-25T11:34:28;6.00;;;2.20;;
21601;SDS011;10963;50.934;4.668;2023-04-25T11:37:02;3.67;;;2.47;;
21601;SDS011;10963;50.934;4.668;2023-04-25T11:39:29;6.90;;;2.90;;
21601;SDS011;10963;50.934;4.668;2023-04-25T11:41:55;3.80;;;2.27;;
21601;SDS011;10963;50.934;4.668;2023-04-25T11:44:21;8.20;;;2.97;;
21601;SDS011;10963;50.934;4.668;2023-04-25T11:46:47;9.27;;;2.87;;
21601;SDS011;10963;50.934;4.668;2023-04-25T11:49:13;5.10;;;1.97;;
21601;SDS011;10963;50.934;4.668;2023-04-25T11:51:44;3.07;;;1.47;;
21601;SDS011;10963;50.934;4.668;2023-04-25T11:54:11;7.03;;;2.33;;
21601;SDS011;10963;50.934;4.668;2023-04-25T11:56:43;8.47;;;1.83;;
21601;SDS011;10963;50.934;4.668;2023-04-25T11:59:10;9.20;;;1.80;;
21601;SDS011;10963;50.934;4.668;2023-04-25T12:01:38;7.13;;;2.10;;
21601;SDS011;10963;50.934;4.668;2023-04-25T12:04:20;8.53;;;2.60;;
21601;SDS011;10963;50.934;4.668;2023-04-25T12:06:47;5.73;;;2.23;;
21601;SDS011;10963;50.934;4.668;2023-04-25T12:09:20;7.20;;;2.50;;
21601;SDS011;10963;50.934;4.668;2023-04-25T12:11:54;5.53;;;2.40;;
21601;SDS011;10963;50.934;4.668;2023-04-25T12:14:22;8.00;;;2.80;;
21601;SDS011;10963;50.934;4.668;2023-04-25T12:16:52;5.77;;;2.53;;
21601;SDS011;10963;50.934;4.668;2023-04-25T12:19:19;8.10;;;2.60;;
21601;SDS011;10963;50.934;4.668;2023-04-25T12:21:46;5.23;;;2.43;;
21601;SDS011;10963;50.934;4.668;2023-04-25T12:24:17;5.80;;;2.40;;
21601;SDS011;10963;50.934;4.668;2023-04-25T12:26:49;4.30;;;2.50;;
21601;SDS011;10963;50.934;4.668;2023-04-25T12:29:22;6.63;;;1.90;;
21601;SDS011;10963;50.934;4.668;2023-04-25T12:31:50;2.83;;;2.00;;
21601;SDS011;10963;50.934;4.668;2023-04-25T12:34:17;4.17;;;2.00;;
21601;SDS011;10963;50.934;4.668;2023-04-25T12:36:46;2.90;;;1.77;;
21601;SDS011;10963;50.934;4.668;2023-04-25T12:39:19;6.43;;;2.10;;
21601;SDS011;10963;50.934;4.668;2023-04-25T12:41:50;2.57;;;1.80;;
21601;SDS011;10963;50.934;4.668;2023-04-25T12:44:21;2.67;;;1.87;;
21601;SDS011;10963;50.934;4.668;2023-04-25T12:46:52;5.83;;;2.20;;
21601;SDS011;10963;50.934;4.668;2023-04-25T12:49:19;7.10;;;2.27;;
21601;SDS011;10963;50.934;4.668;2023-04-25T12:51:50;4.60;;;1.70;;
21601;SDS011;10963;50.934;4.668;2023-04-25T12:54:19;3.17;;;1.83;;
21601;SDS011;10963;50.934;4.668;2023-04-25T12:56:45;3.80;;;1.80;;
21601;SDS011;10963;50.934;4.668;2023-04-25T12:59:11;4.57;;;1.50;;
21601;SDS011;10963;50.934;4.668;2023-04-25T13:01:36;8.53;;;1.50;;
21601;SDS011;10963;50.934;4.668;2023-04-25T13:04:02;7.03;;;1.97;;
21601;SDS011;10963;50.934;4.668;2023-04-25T13:06:28;4.30;;;1.37;;
21601;SDS011;10963;50.934;4.668;2023-04-25T13:08:56;5.40;;;1.57;;
21601;SDS011;10963;50.934;4.668;2023-04-25T13:11:22;7.40;;;1.70;;
21601;SDS011;10963;50.934;4.668;2023-04-25T13:13:53;5.80;;;1.63;;
21601;SDS011;10963;50.934;4.668;2023-04-25T13:16:18;5.37;;;1.80;;
21601;SDS011;10963;50.934;4.668;2023-04-25T13:18:45;4.03;;;1.80;;
21601;SDS011;10963;50.934;4.668;2023-04-25T13:21:11;5.40;;;1.63;;
21601;SDS011;10963;50.934;4.668;2023-04-25T13:23:39;4.87;;;1.63;;
21601;SDS011;10963;50.934;4.668;2023-04-25T13:26:08;3.83;;;1.60;;
21601;SDS011;10963;50.934;4.668;2023-04-25T13:28:34;4.70;;;1.80;;
21601;SDS011;10963;50.934;4.668;2023-04-25T13:30:59;5.73;;;1.40;;
21601;SDS011;10963;50.934;4.668;2023-04-25T13:33:25;4.47;;;1.97;;
21601;SDS011;10963;50.934;4.668;2023-04-25T13:35:53;4.40;;;1.90;;
21601;SDS011;10963;50.934;4.668;2023-04-25T13:38:21;6.10;;;1.70;;
21601;SDS011;10963;50.934;4.668;2023-04-25T13:40:50;3.30;;;1.50;;
21601;SDS011;10963;50.934;4.668;2023-04-25T13:43:21;3.97;;;1.80;;
21601;SDS011;10963;50.934;4.668;2023-04-25T13:45:47;2.60;;;1.37;;
21601;SDS011;10963;50.934;4.668;2023-04-25T13:48:13;4.03;;;1.93;;
21601;SDS011;10963;50.934;4.668;2023-04-25T13:50:41;7.87;;;1.77;;
21601;SDS011;10963;50.934;4.668;2023-04-25T13:53:07;8.30;;;2.20;;
21601;SDS011;10963;50.934;4.668;2023-04-25T13:55:33;2.73;;;2.00;;
21601;SDS011;10963;50.934;4.668;2023-04-25T13:58:02;3.63;;;1.60;;
21601;SDS011;10963;50.934;4.668;2023-04-25T14:00:36;4.40;;;1.90;;
21601;SDS011;10963;50.934;4.668;2023-04-25T14:03:03;6.43;;;2.00;;
21601;SDS011;10963;50.934;4.668;2023-04-25T14:05:34;3.33;;;1.87;;
21601;SDS011;10963;50.934;4.668;2023-04-25T14:08:08;6.13;;;2.20;;
21601;SDS011;10963;50.934;4.668;2023-04-25T14:10:34;7.30;;;2.57;;
21601;SDS011;10963;50.934;4.668;2023-04-25T14:13:01;6.97;;;1.90;;
21601;SDS011;10963;50.934;4.668;2023-04-25T14:15:32;6.13;;;2.20;;
21601;SDS011;10963;50.934;4.668;2023-04-25T14:18:00;5.93;;;1.90;;
21601;SDS011;10963;50.934;4.668;2023-04-25T14:20:31;3.30;;;1.87;;
21601;SDS011;10963;50.934;4.668;2023-04-25T14:22:59;6.10;;;1.53;;
21601;SDS011;10963;50.934;4.668;2023-04-25T14:25:25;5.70;;;1.70;;
21601;SDS011;10963;50.934;4.668;2023-04-25T14:27:50;8.10;;;2.00;;
21601;SDS011;10963;50.934;4.668;2023-04-25T14:30:17;2.93;;;1.50;;
21601;SDS011;10963;50.934;4.668;2023-04-25T14:32:43;6.33;;;1.50;;
21601;SDS011;10963;50.934;4.668;2023-04-25T14:35:09;5.10;;;2.17;;
21601;SDS011;10963;50.934;4.668;2023-04-25T14:37:35;7.20;;;1.87;;
21601;SDS011;10963;50.934;4.668;2023-04-25T14:40:06;6.23;;;1.77;;
21601;SDS011;10963;50.934;4.668;2023-04-25T14:42:37;7.17;;;1.70;;
21601;SDS011;10963;50.934;4.668;2023-04-25T14:45:05;5.43;;;1.60;;
21601;SDS011;10963;50.934;4.668;2023-04-25T14:47:32;7.80;;;1.60;;
21601;SDS011;10963;50.934;4.668;2023-04-25T14:49:58;7.47;;;1.97;;
21601;SDS011;10963;50.934;4.668;2023-04-25T14:52:24;4.47;;;1.60;;
21601;SDS011;10963;50.934;4.668;2023-04-25T14:54:50;5.07;;;1.50;;
21601;SDS011;10963;50.934;4.668;2023-04-25T14:57:16;6.60;;;1.67;;